sensor_id;sensor_type;location;lat;lon;timestamp;P1;durP1;ratioP1;P2;durP2;ratioP2
44536;SDS011;30245;51.966;6.292;2024-03-17T00:01:54;12.77;;;5.07;;
44536;SDS011;30245;51.966;6.292;2024-03-17T00:04:20;6.07;;;4.07;;
44536;SDS011;30245;51.966;6.292;2024-03-17T00:06:46;6.90;;;4.27;;
44536;SDS011;30245;51.966;6.292;2024-03-17T00:09:12;6.87;;;3.50;;
44536;SDS011;30245;51.966;6.292;2024-03-17T00:11:38;5.30;;;3.63;;
44536;SDS011;30245;51.966;6.292;2024-03-17T00:14:04;6.23;;;3.20;;
44536;SDS011;30245;51.966;6.292;2024-03-17T00:16:30;8.93;;;4.03;;
44536;SDS011;30245;51.966;6.292;2024-03-17T00:18:56;8.63;;;3.57;;
44536;SDS011;30245;51.966;6.292;2024-03-17T00:21:21;4.90;;;2.97;;
44536;SDS011;30245;51.966;6.292;2024-03-17T00:23:48;4.10;;;2.03;;
44536;SDS011;30245;51.966;6.292;2024-03-17T00:26:16;3.90;;;2.40;;
44536;SDS011;30245;51.966;6.292;2024-03-17T00:28:44;10.43;;;4.00;;
44536;SDS011;30245;51.966;6.292;2024-03-17T00:31:13;11.30;;;3.70;;
44536;SDS011;30245;51.966;6.292;2024-03-17T00:33:39;8.40;;;3.37;;
44536;SDS011;30245;51.966;6.292;2024-03-17T00:36:05;6.67;;;3.03;;
44536;SDS011;30245;51.966;6.292;2024-03-17T00:38:31;7.80;;;4.17;;
44536;SDS011;30245;51.966;6.292;2024-03-17T00:40:57;4.13;;;3.43;;
44536;SDS011;30245;51.966;6.292;2024-03-17T00:43:22;5.50;;;2.87;;
44536;SDS011;30245;51.966;6.292;2024-03-17T00:45:51;7.80;;;3.50;;
44536;SDS011;30245;51.966;6.292;2024-03-17T00:48:17;5.83;;;3.30;;
44536;SDS011;30245;51.966;6.292;2024-03-17T00:50:43;7.37;;;2.57;;
44536;SDS011;30245;51.966;6.292;2024-03-17T00:53:09;4.03;;;2.40;;
44536;SDS011;30245;51.966;6.292;2024-03-17T00:55:36;6.37;;;3.20;;
44536;SDS011;30245;51.966;6.292;2024-03-17T00:58:01;7.97;;;2.90;;
44536;SDS011;30245;51.966;6.292;2024-03-17T01:00:28;5.37;;;3.10;;
44536;SDS011;30245;51.966;6.292;2024-03-17T01:02:54;4.07;;;3.00;;
44536;SDS011;30245;51.966;6.292;2024-03-17T01:05:19;2.90;;;2.40;;
44536;SDS011;30245;51.966;6.292;2024-03-17T01:07:45;6.20;;;2.30;;
44536;SDS011;30245;51.966;6.292;2024-03-17T01:10:12;5.70;;;2.53;;
44536;SDS011;30245;51.966;6.292;2024-03-17T01:12:38;3.80;;;3.20;;
44536;SDS011;30245;51.966;6.292;2024-03-17T01:15:05;7.17;;;2.90;;
44536;SDS011;30245;51.966;6.292;2024-03-17T01:17:31;3.17;;;2.53;;
44536;SDS011;30245;51.966;6.292;2024-03-17T01:19:56;4.27;;;2.87;;
44536;SDS011;30245;51.966;6.292;2024-03-17T01:22:22;4.77;;;2.63;;
44536;SDS011;30245;51.966;6.292;2024-03-17T01:24:47;5.33;;;3.17;;
44536;SDS011;30245;51.966;6.292;2024-03-17T01:27:13;4.10;;;2.23;;
44536;SDS011;30245;51.966;6.292;2024-03-17T01:29:41;6.00;;;3.28;;
44536;SDS011;30245;51.966;6.292;2024-03-17T01:32:08;3.73;;;2.20;;
44536;SDS011;30245;51.966;6.292;2024-03-17T01:34:33;5.43;;;3.20;;
44536;SDS011;30245;51.966;6.292;2024-03-17T01:36:59;2.93;;;2.37;;
44536;SDS011;30245;51.966;6.292;2024-03-17T01:39:25;4.40;;;2.67;;
44536;SDS011;30245;51.966;6.292;2024-03-17T01:41:50;2.83;;;1.80;;
44536;SDS011;30245;51.966;6.292;2024-03-17T01:44:24;4.40;;;3.03;;
44536;SDS011;30245;51.966;6.292;2024-03-17T01:46:51;7.80;;;2.90;;
44536;SDS011;30245;51.966;6.292;2024-03-17T01:49:18;4.67;;;2.60;;
44536;SDS011;30245;51.966;6.292;2024-03-17T01:51:44;4.50;;;2.37;;
44536;SDS011;30245;51.966;6.292;2024-03-17T01:54:11;4.70;;;2.00;;
44536;SDS011;30245;51.966;6.292;2024-03-17T01:56:38;5.37;;;2.60;;
44536;SDS011;30245;51.966;6.292;2024-03-17T01:59:04;6.20;;;2.30;;
44536;SDS011;30245;51.966;6.292;2024-03-17T02:01:32;4.53;;;2.43;;
44536;SDS011;30245;51.966;6.292;2024-03-17T02:03:58;7.10;;;2.77;;
44536;SDS011;30245;51.966;6.292;2024-03-17T02:06:24;4.33;;;2.50;;
44536;SDS011;30245;51.966;6.292;2024-03-17T02:08:50;5.87;;;2.83;;
44536;SDS011;30245;51.966;6.292;2024-03-17T02:11:25;7.20;;;2.83;;
44536;SDS011;30245;51.966;6.292;2024-03-17T02:13:51;5.50;;;3.37;;
44536;SDS011;30245;51.966;6.292;2024-03-17T02:16:17;5.40;;;3.17;;
44536;SDS011;30245;51.966;6.292;2024-03-17T02:18:44;5.70;;;3.23;;
44536;SDS011;30245;51.966;6.292;2024-03-17T02:21:09;6.00;;;4.03;;
44536;SDS011;30245;51.966;6.292;2024-03-17T02:23:35;5.27;;;3.77;;
44536;SDS011;30245;51.966;6.292;2024-03-17T02:26:01;9.73;;;4.47;;
44536;SDS011;30245;51.966;6.292;2024-03-17T02:28:26;5.00;;;2.70;;
44536;SDS011;30245;51.966;6.292;2024-03-17T02:30:52;3.77;;;2.70;;
44536;SDS011;30245;51.966;6.292;2024-03-17T02:33:17;6.70;;;3.30;;
44536;SDS011;30245;51.966;6.292;2024-03-17T02:35:43;7.30;;;3.43;;
44536;SDS011;30245;51.966;6.292;2024-03-17T02:38:15;8.93;;;3.03;;
44536;SDS011;30245;51.966;6.292;2024-03-17T02:41:01;5.30;;;3.40;;
44536;SDS011;30245;51.966;6.292;2024-03-17T02:43:26;3.90;;;3.23;;
44536;SDS011;30245;51.966;6.292;2024-03-17T02:45:52;5.13;;;2.93;;
44536;SDS011;30245;51.966;6.292;2024-03-17T02:48:17;4.77;;;2.23;;
44536;SDS011;30245;51.966;6.292;2024-03-17T02:50:43;4.53;;;2.30;;
44536;SDS011;30245;51.966;6.292;2024-03-17T02:53:09;3.20;;;2.43;;
44536;SDS011;30245;51.966;6.292;2024-03-17T02:55:34;4.37;;;2.33;;
44536;SDS011;30245;51.966;6.292;2024-03-17T02:58:00;5.67;;;2.43;;
44536;SDS011;30245;51.966;6.292;2024-03-17T03:00:25;4.27;;;2.00;;
44536;SDS011;30245;51.966;6.292;2024-03-17T03:02:51;5.90;;;2.43;;
44536;SDS011;30245;51.966;6.292;2024-03-17T03:05:17;6.67;;;3.40;;
44536;SDS011;30245;51.966;6.292;2024-03-17T03:07:42;5.97;;;5.47;;
44536;SDS011;30245;51.966;6.292;2024-03-17T03:10:08;7.80;;;6.60;;
44536;SDS011;30245;51.966;6.292;2024-03-17T03:12:34;8.37;;;4.67;;
44536;SDS011;30245;51.966;6.292;2024-03-17T03:14:59;3.17;;;2.83;;
44536;SDS011;30245;51.966;6.292;2024-03-17T03:17:25;7.50;;;4.20;;
44536;SDS011;30245;51.966;6.292;2024-03-17T03:19:50;3.83;;;3.47;;
44536;SDS011;30245;51.966;6.292;2024-03-17T03:22:16;3.97;;;2.40;;
44536;SDS011;30245;51.966;6.292;2024-03-17T03:24:41;4.60;;;2.63;;
44536;SDS011;30245;51.966;6.292;2024-03-17T03:27:07;4.53;;;2.70;;
44536;SDS011;30245;51.966;6.292;2024-03-17T03:29:33;2.27;;;2.00;;
44536;SDS011;30245;51.966;6.292;2024-03-17T03:31:59;5.10;;;2.20;;
44536;SDS011;30245;51.966;6.292;2024-03-17T03:34:24;4.13;;;2.73;;
44536;SDS011;30245;51.966;6.292;2024-03-17T03:36:50;13.40;;;3.03;;
44536;SDS011;30245;51.966;6.292;2024-03-17T03:39:16;3.90;;;3.20;;
44536;SDS011;30245;51.966;6.292;2024-03-17T03:41:43;2.77;;;2.07;;
44536;SDS011;30245;51.966;6.292;2024-03-17T03:44:09;8.10;;;2.60;;
44536;SDS011;30245;51.966;6.292;2024-03-17T03:46:35;7.97;;;2.63;;
44536;SDS011;30245;51.966;6.292;2024-03-17T03:49:01;7.23;;;2.43;;
44536;SDS011;30245;51.966;6.292;2024-03-17T03:51:26;4.07;;;2.53;;
44536;SDS011;30245;51.966;6.292;2024-03-17T03:53:52;8.87;;;3.27;;
44536;SDS011;30245;51.966;6.292;2024-03-17T03:56:17;6.70;;;2.40;;
44536;SDS011;30245;51.966;6.292;2024-03-17T03:58:43;4.13;;;3.20;;
44536;SDS011;30245;51.966;6.292;2024-03-17T04:01:11;4.47;;;2.27;;
44536;SDS011;30245;51.966;6.292;2024-03-17T04:03:37;5.70;;;2.50;;
44536;SDS011;30245;51.966;6.292;2024-03-17T04:06:03;3.37;;;2.47;;
44536;SDS011;30245;51.966;6.292;2024-03-17T04:08:30;4.97;;;2.50;;
44536;SDS011;30245;51.966;6.292;2024-03-17T04:10:56;3.23;;;2.60;;
44536;SDS011;30245;51.966;6.292;2024-03-17T04:13:21;3.63;;;2.63;;
44536;SDS011;30245;51.966;6.292;2024-03-17T04:15:47;4.00;;;2.13;;
44536;SDS011;30245;51.966;6.292;2024-03-17T04:18:13;5.57;;;3.03;;
44536;SDS011;30245;51.966;6.292;2024-03-17T04:20:40;4.63;;;2.50;;
44536;SDS011;30245;51.966;6.292;2024-03-17T04:23:06;9.40;;;4.70;;
44536;SDS011;30245;51.966;6.292;2024-03-17T04:25:32;6.93;;;3.27;;
44536;SDS011;30245;51.966;6.292;2024-03-17T04:27:58;8.03;;;3.13;;
44536;SDS011;30245;51.966;6.292;2024-03-17T04:30:23;2.90;;;2.50;;
44536;SDS011;30245;51.966;6.292;2024-03-17T04:32:49;3.67;;;3.37;;
44536;SDS011;30245;51.966;6.292;2024-03-17T04:35:15;6.27;;;3.13;;
44536;SDS011;30245;51.966;6.292;2024-03-17T04:37:41;4.97;;;2.87;;
44536;SDS011;30245;51.966;6.292;2024-03-17T04:40:07;4.77;;;2.77;;
44536;SDS011;30245;51.966;6.292;2024-03-17T04:42:34;4.40;;;2.50;;
44536;SDS011;30245;51.966;6.292;2024-03-17T04:45:00;3.37;;;2.37;;
44536;SDS011;30245;51.966;6.292;2024-03-17T04:47:26;4.43;;;3.60;;
44536;SDS011;30245;51.966;6.292;2024-03-17T04:49:51;8.27;;;4.17;;
44536;SDS011;30245;51.966;6.292;2024-03-17T04:52:17;4.20;;;3.17;;
44536;SDS011;30245;51.966;6.292;2024-03-17T04:54:43;5.77;;;3.60;;
44536;SDS011;30245;51.966;6.292;2024-03-17T04:57:09;3.73;;;3.10;;
44536;SDS011;30245;51.966;6.292;2024-03-17T04:59:35;4.40;;;3.63;;
44536;SDS011;30245;51.966;6.292;2024-03-17T05:02:01;6.27;;;3.43;;
44536;SDS011;30245;51.966;6.292;2024-03-17T05:04:27;6.87;;;4.00;;
44536;SDS011;30245;51.966;6.292;2024-03-17T05:06:53;4.10;;;3.70;;
44536;SDS011;30245;51.966;6.292;2024-03-17T05:09:19;5.87;;;3.57;;
44536;SDS011;30245;51.966;6.292;2024-03-17T05:11:45;5.70;;;3.67;;
44536;SDS011;30245;51.966;6.292;2024-03-17T05:14:12;7.10;;;4.07;;
44536;SDS011;30245;51.966;6.292;2024-03-17T05:16:38;6.03;;;4.07;;
44536;SDS011;30245;51.966;6.292;2024-03-17T05:19:04;7.23;;;4.23;;
44536;SDS011;30245;51.966;6.292;2024-03-17T05:21:30;6.97;;;4.20;;
44536;SDS011;30245;51.966;6.292;2024-03-17T05:23:56;6.63;;;4.93;;
44536;SDS011;30245;51.966;6.292;2024-03-17T05:26:25;10.57;;;5.20;;
44536;SDS011;30245;51.966;6.292;2024-03-17T05:28:51;5.40;;;4.67;;
44536;SDS011;30245;51.966;6.292;2024-03-17T05:31:17;5.63;;;3.93;;
44536;SDS011;30245;51.966;6.292;2024-03-17T05:33:43;5.47;;;4.97;;
44536;SDS011;30245;51.966;6.292;2024-03-17T05:36:11;4.05;;;3.70;;
44536;SDS011;30245;51.966;6.292;2024-03-17T05:38:37;8.53;;;4.87;;
44536;SDS011;30245;51.966;6.292;2024-03-17T05:41:03;6.43;;;4.83;;
44536;SDS011;30245;51.966;6.292;2024-03-17T05:43:31;4.70;;;3.67;;
44536;SDS011;30245;51.966;6.292;2024-03-17T05:45:58;6.80;;;4.50;;
44536;SDS011;30245;51.966;6.292;2024-03-17T05:48:28;6.10;;;4.27;;
44536;SDS011;30245;51.966;6.292;2024-03-17T05:50:54;6.17;;;4.23;;
44536;SDS011;30245;51.966;6.292;2024-03-17T05:53:21;4.27;;;3.87;;
44536;SDS011;30245;51.966;6.292;2024-03-17T05:55:49;6.72;;;4.32;;
44536;SDS011;30245;51.966;6.292;2024-03-17T05:58:15;6.73;;;3.83;;
44536;SDS011;30245;51.966;6.292;2024-03-17T06:00:41;9.60;;;3.90;;
44536;SDS011;30245;51.966;6.292;2024-03-17T06:03:06;9.20;;;4.80;;
44536;SDS011;30245;51.966;6.292;2024-03-17T06:05:37;6.97;;;4.10;;
44536;SDS011;30245;51.966;6.292;2024-03-17T06:08:04;5.90;;;3.33;;
44536;SDS011;30245;51.966;6.292;2024-03-17T06:10:31;8.17;;;3.97;;
44536;SDS011;30245;51.966;6.292;2024-03-17T06:12:57;7.87;;;3.83;;
44536;SDS011;30245;51.966;6.292;2024-03-17T06:15:23;4.43;;;3.00;;
44536;SDS011;30245;51.966;6.292;2024-03-17T06:17:50;5.70;;;4.23;;
44536;SDS011;30245;51.966;6.292;2024-03-17T06:20:23;4.23;;;3.30;;
44536;SDS011;30245;51.966;6.292;2024-03-17T06:22:52;7.30;;;4.17;;
44536;SDS011;30245;51.966;6.292;2024-03-17T06:25:18;6.27;;;4.27;;
44536;SDS011;30245;51.966;6.292;2024-03-17T06:27:43;11.23;;;3.63;;
44536;SDS011;30245;51.966;6.292;2024-03-17T06:30:12;7.47;;;3.87;;
44536;SDS011;30245;51.966;6.292;2024-03-17T06:32:41;5.83;;;3.67;;
44536;SDS011;30245;51.966;6.292;2024-03-17T06:35:07;8.20;;;4.20;;
44536;SDS011;30245;51.966;6.292;2024-03-17T06:37:34;8.03;;;4.27;;
44536;SDS011;30245;51.966;6.292;2024-03-17T06:40:00;5.63;;;4.03;;
44536;SDS011;30245;51.966;6.292;2024-03-17T06:42:26;4.90;;;4.13;;
44536;SDS011;30245;51.966;6.292;2024-03-17T06:44:52;4.13;;;3.33;;
44536;SDS011;30245;51.966;6.292;2024-03-17T06:47:17;8.47;;;4.70;;
44536;SDS011;30245;51.966;6.292;2024-03-17T06:49:44;6.60;;;4.17;;
44536;SDS011;30245;51.966;6.292;2024-03-17T06:52:10;3.93;;;3.53;;
44536;SDS011;30245;51.966;6.292;2024-03-17T06:54:36;5.97;;;4.60;;
44536;SDS011;30245;51.966;6.292;2024-03-17T06:57:01;7.07;;;4.70;;
44536;SDS011;30245;51.966;6.292;2024-03-17T06:59:27;8.17;;;5.40;;
44536;SDS011;30245;51.966;6.292;2024-03-17T07:01:52;6.00;;;4.30;;
44536;SDS011;30245;51.966;6.292;2024-03-17T07:04:18;4.57;;;3.90;;
44536;SDS011;30245;51.966;6.292;2024-03-17T07:06:44;5.87;;;3.97;;
44536;SDS011;30245;51.966;6.292;2024-03-17T07:09:10;8.00;;;4.17;;
44536;SDS011;30245;51.966;6.292;2024-03-17T07:11:35;11.13;;;5.10;;
44536;SDS011;30245;51.966;6.292;2024-03-17T07:14:01;8.67;;;4.83;;
44536;SDS011;30245;51.966;6.292;2024-03-17T07:16:27;8.93;;;4.70;;
44536;SDS011;30245;51.966;6.292;2024-03-17T07:18:53;4.83;;;4.00;;
44536;SDS011;30245;51.966;6.292;2024-03-17T07:21:21;6.80;;;4.53;;
44536;SDS011;30245;51.966;6.292;2024-03-17T07:23:46;6.70;;;4.63;;
44536;SDS011;30245;51.966;6.292;2024-03-17T07:26:12;6.93;;;4.10;;
44536;SDS011;30245;51.966;6.292;2024-03-17T07:28:39;6.17;;;5.13;;
44536;SDS011;30245;51.966;6.292;2024-03-17T07:31:05;8.17;;;4.93;;
44536;SDS011;30245;51.966;6.292;2024-03-17T07:33:33;5.63;;;3.92;;
44536;SDS011;30245;51.966;6.292;2024-03-17T07:35:59;4.90;;;4.10;;
44536;SDS011;30245;51.966;6.292;2024-03-17T07:38:26;6.77;;;3.60;;
44536;SDS011;30245;51.966;6.292;2024-03-17T07:41:10;5.30;;;4.40;;
44536;SDS011;30245;51.966;6.292;2024-03-17T07:43:36;5.23;;;4.00;;
44536;SDS011;30245;51.966;6.292;2024-03-17T07:46:03;4.53;;;3.73;;
44536;SDS011;30245;51.966;6.292;2024-03-17T07:48:31;5.23;;;3.77;;
44536;SDS011;30245;51.966;6.292;2024-03-17T07:50:59;5.93;;;4.03;;
44536;SDS011;30245;51.966;6.292;2024-03-17T07:53:28;7.13;;;4.30;;
44536;SDS011;30245;51.966;6.292;2024-03-17T07:56:07;5.53;;;3.33;;
44536;SDS011;30245;51.966;6.292;2024-03-17T07:58:34;5.90;;;4.13;;
44536;SDS011;30245;51.966;6.292;2024-03-17T08:01:03;6.25;;;3.38;;
44536;SDS011;30245;51.966;6.292;2024-03-17T08:03:30;5.30;;;3.23;;
44536;SDS011;30245;51.966;6.292;2024-03-17T08:05:58;4.30;;;3.57;;
44536;SDS011;30245;51.966;6.292;2024-03-17T08:08:25;4.95;;;3.65;;
44536;SDS011;30245;51.966;6.292;2024-03-17T08:10:51;6.13;;;3.50;;
44536;SDS011;30245;51.966;6.292;2024-03-17T08:13:17;5.20;;;4.10;;
44536;SDS011;30245;51.966;6.292;2024-03-17T08:15:43;3.93;;;3.33;;
44536;SDS011;30245;51.966;6.292;2024-03-17T08:18:10;4.77;;;4.23;;
44536;SDS011;30245;51.966;6.292;2024-03-17T08:20:39;4.50;;;3.77;;
44536;SDS011;30245;51.966;6.292;2024-03-17T08:23:06;4.27;;;3.87;;
44536;SDS011;30245;51.966;6.292;2024-03-17T08:25:34;5.17;;;3.57;;
44536;SDS011;30245;51.966;6.292;2024-03-17T08:28:00;5.68;;;3.00;;
44536;SDS011;30245;51.966;6.292;2024-03-17T08:30:27;8.27;;;3.60;;
44536;SDS011;30245;51.966;6.292;2024-03-17T08:32:52;4.30;;;3.10;;
44536;SDS011;30245;51.966;6.292;2024-03-17T08:35:18;3.83;;;3.40;;
44536;SDS011;30245;51.966;6.292;2024-03-17T08:37:43;4.63;;;2.97;;
44536;SDS011;30245;51.966;6.292;2024-03-17T08:40:10;3.80;;;3.33;;
44536;SDS011;30245;51.966;6.292;2024-03-17T08:42:37;7.27;;;2.87;;
44536;SDS011;30245;51.966;6.292;2024-03-17T08:45:02;7.20;;;3.37;;
44536;SDS011;30245;51.966;6.292;2024-03-17T08:47:28;5.10;;;4.13;;
44536;SDS011;30245;51.966;6.292;2024-03-17T08:49:54;5.07;;;3.83;;
44536;SDS011;30245;51.966;6.292;2024-03-17T08:52:20;10.43;;;3.03;;
44536;SDS011;30245;51.966;6.292;2024-03-17T08:54:49;6.63;;;4.07;;
44536;SDS011;30245;51.966;6.292;2024-03-17T08:57:17;4.90;;;3.10;;
44536;SDS011;30245;51.966;6.292;2024-03-17T08:59:46;5.53;;;3.77;;
44536;SDS011;30245;51.966;6.292;2024-03-17T09:02:13;4.85;;;3.92;;
44536;SDS011;30245;51.966;6.292;2024-03-17T09:04:40;3.57;;;2.17;;
44536;SDS011;30245;51.966;6.292;2024-03-17T09:07:06;3.70;;;2.67;;
44536;SDS011;30245;51.966;6.292;2024-03-17T09:09:31;3.07;;;2.77;;
44536;SDS011;30245;51.966;6.292;2024-03-17T09:11:57;4.97;;;2.65;;
44536;SDS011;30245;51.966;6.292;2024-03-17T09:14:23;3.35;;;3.03;;
44536;SDS011;30245;51.966;6.292;2024-03-17T09:16:49;5.43;;;2.83;;
44536;SDS011;30245;51.966;6.292;2024-03-17T09:19:14;3.75;;;2.00;;
44536;SDS011;30245;51.966;6.292;2024-03-17T09:21:40;3.00;;;1.77;;
44536;SDS011;30245;51.966;6.292;2024-03-17T09:24:06;3.08;;;2.17;;
44536;SDS011;30245;51.966;6.292;2024-03-17T09:26:36;3.83;;;2.28;;
44536;SDS011;30245;51.966;6.292;2024-03-17T09:29:04;2.95;;;1.67;;
44536;SDS011;30245;51.966;6.292;2024-03-17T09:31:30;3.45;;;1.75;;
44536;SDS011;30245;51.966;6.292;2024-03-17T09:36:24;3.53;;;2.10;;
44536;SDS011;30245;51.966;6.292;2024-03-17T09:38:50;4.80;;;1.20;;
44536;SDS011;30245;51.966;6.292;2024-03-17T09:41:20;3.67;;;1.50;;
44536;SDS011;30245;51.966;6.292;2024-03-17T09:43:54;1.65;;;1.45;;
44536;SDS011;30245;51.966;6.292;2024-03-17T09:46:22;2.17;;;1.63;;
44536;SDS011;30245;51.966;6.292;2024-03-17T09:48:52;3.20;;;1.60;;
44536;SDS011;30245;51.966;6.292;2024-03-17T09:51:19;3.65;;;1.67;;
44536;SDS011;30245;51.966;6.292;2024-03-17T09:53:49;2.30;;;1.63;;
44536;SDS011;30245;51.966;6.292;2024-03-17T09:56:16;2.25;;;1.45;;
44536;SDS011;30245;51.966;6.292;2024-03-17T10:01:13;2.53;;;1.33;;
44536;SDS011;30245;51.966;6.292;2024-03-17T10:03:40;3.88;;;1.63;;
44536;SDS011;30245;51.966;6.292;2024-03-17T10:06:10;3.95;;;2.33;;
44536;SDS011;30245;51.966;6.292;2024-03-17T10:08:43;4.72;;;1.65;;
44536;SDS011;30245;51.966;6.292;2024-03-17T10:11:12;2.70;;;2.22;;
44536;SDS011;30245;51.966;6.292;2024-03-17T10:13:43;8.27;;;3.25;;
44536;SDS011;30245;51.966;6.292;2024-03-17T10:16:22;5.78;;;3.58;;
44536;SDS011;30245;51.966;6.292;2024-03-17T10:18:49;4.18;;;2.83;;
44536;SDS011;30245;51.966;6.292;2024-03-17T10:21:26;5.13;;;2.95;;
44536;SDS011;30245;51.966;6.292;2024-03-17T10:24:04;4.28;;;3.88;;
44536;SDS011;30245;51.966;6.292;2024-03-17T10:26:44;4.35;;;3.03;;
44536;SDS011;30245;51.966;6.292;2024-03-17T10:31:57;5.07;;;2.65;;
44536;SDS011;30245;51.966;6.292;2024-03-17T10:34:26;5.05;;;3.10;;
44536;SDS011;30245;51.966;6.292;2024-03-17T10:37:09;5.10;;;3.33;;
44536;SDS011;30245;51.966;6.292;2024-03-17T10:42:15;4.72;;;2.97;;
44536;SDS011;30245;51.966;6.292;2024-03-17T10:44:53;4.63;;;2.20;;
44536;SDS011;30245;51.966;6.292;2024-03-17T10:47:21;11.10;;;2.58;;
44536;SDS011;30245;51.966;6.292;2024-03-17T10:49:51;3.42;;;2.42;;
44536;SDS011;30245;51.966;6.292;2024-03-17T10:52:19;4.15;;;3.10;;
44536;SDS011;30245;51.966;6.292;2024-03-17T10:57:23;5.38;;;2.88;;
44536;SDS011;30245;51.966;6.292;2024-03-17T11:00:08;3.92;;;2.30;;
44536;SDS011;30245;51.966;6.292;2024-03-17T11:02:35;4.35;;;2.78;;
44536;SDS011;30245;51.966;6.292;2024-03-17T11:05:17;3.30;;;1.70;;
44536;SDS011;30245;51.966;6.292;2024-03-17T11:07:48;4.13;;;2.28;;
44536;SDS011;30245;51.966;6.292;2024-03-17T11:10:18;5.90;;;2.92;;
44536;SDS011;30245;51.966;6.292;2024-03-17T11:20:28;6.13;;;3.10;;
44536;SDS011;30245;51.966;6.292;2024-03-17T11:22:55;3.25;;;2.00;;
44536;SDS011;30245;51.966;6.292;2024-03-17T11:27:54;3.60;;;1.75;;
44536;SDS011;30245;51.966;6.292;2024-03-17T11:35:52;3.92;;;2.20;;
44536;SDS011;30245;51.966;6.292;2024-03-17T11:44:29;3.92;;;1.77;;
44536;SDS011;30245;51.966;6.292;2024-03-17T11:47:01;5.15;;;1.70;;
44536;SDS011;30245;51.966;6.292;2024-03-17T11:49:35;1.50;;;1.10;;
44536;SDS011;30245;51.966;6.292;2024-03-17T11:52:03;3.78;;;1.63;;
44536;SDS011;30245;51.966;6.292;2024-03-17T11:54:31;4.38;;;2.15;;
44536;SDS011;30245;51.966;6.292;2024-03-17T11:57:08;1.67;;;1.00;;
44536;SDS011;30245;51.966;6.292;2024-03-17T11:59:35;4.50;;;1.60;;
44536;SDS011;30245;51.966;6.292;2024-03-17T12:02:02;3.60;;;1.77;;
44536;SDS011;30245;51.966;6.292;2024-03-17T12:04:39;4.90;;;1.88;;
44536;SDS011;30245;51.966;6.292;2024-03-17T12:07:07;4.82;;;1.95;;
44536;SDS011;30245;51.966;6.292;2024-03-17T12:09:42;2.67;;;1.77;;
44536;SDS011;30245;51.966;6.292;2024-03-17T12:12:16;2.25;;;1.73;;
44536;SDS011;30245;51.966;6.292;2024-03-17T12:14:47;4.30;;;2.70;;
44536;SDS011;30245;51.966;6.292;2024-03-17T12:17:14;3.95;;;1.50;;
44536;SDS011;30245;51.966;6.292;2024-03-17T12:19:45;3.20;;;2.58;;
44536;SDS011;30245;51.966;6.292;2024-03-17T12:22:15;2.90;;;2.03;;
44536;SDS011;30245;51.966;6.292;2024-03-17T12:24:50;3.17;;;1.85;;
44536;SDS011;30245;51.966;6.292;2024-03-17T12:27:23;4.80;;;2.28;;
44536;SDS011;30245;51.966;6.292;2024-03-17T12:29:50;2.40;;;1.58;;
44536;SDS011;30245;51.966;6.292;2024-03-17T12:32:18;4.05;;;1.83;;
44536;SDS011;30245;51.966;6.292;2024-03-17T12:34:51;7.95;;;2.47;;
44536;SDS011;30245;51.966;6.292;2024-03-17T12:37:23;3.40;;;1.48;;
44536;SDS011;30245;51.966;6.292;2024-03-17T12:39:53;5.53;;;2.15;;
44536;SDS011;30245;51.966;6.292;2024-03-17T12:42:28;3.97;;;2.80;;
44536;SDS011;30245;51.966;6.292;2024-03-17T12:44:58;3.90;;;2.42;;
44536;SDS011;30245;51.966;6.292;2024-03-17T12:47:29;1.67;;;1.20;;
44536;SDS011;30245;51.966;6.292;2024-03-17T12:49:56;2.33;;;1.40;;
44536;SDS011;30245;51.966;6.292;2024-03-17T12:52:24;3.05;;;1.15;;
44536;SDS011;30245;51.966;6.292;2024-03-17T12:55:00;2.03;;;1.35;;
44536;SDS011;30245;51.966;6.292;2024-03-17T13:00:45;1.52;;;0.90;;
44536;SDS011;30245;51.966;6.292;2024-03-17T13:03:23;2.88;;;1.00;;
44536;SDS011;30245;51.966;6.292;2024-03-17T13:05:50;5.50;;;1.10;;
44536;SDS011;30245;51.966;6.292;2024-03-17T13:08:16;3.35;;;1.17;;
44536;SDS011;30245;51.966;6.292;2024-03-17T13:10:42;3.53;;;1.77;;
44536;SDS011;30245;51.966;6.292;2024-03-17T13:13:08;4.18;;;1.38;;
44536;SDS011;30245;51.966;6.292;2024-03-17T13:15:35;2.85;;;1.55;;
44536;SDS011;30245;51.966;6.292;2024-03-17T13:18:03;2.70;;;1.63;;
44536;SDS011;30245;51.966;6.292;2024-03-17T13:20:30;1.58;;;1.33;;
44536;SDS011;30245;51.966;6.292;2024-03-17T13:22:57;2.13;;;1.30;;
44536;SDS011;30245;51.966;6.292;2024-03-17T13:25:25;1.70;;;1.25;;
44536;SDS011;30245;51.966;6.292;2024-03-17T13:27:54;4.43;;;2.08;;
44536;SDS011;30245;51.966;6.292;2024-03-17T13:30:21;5.07;;;2.03;;
44536;SDS011;30245;51.966;6.292;2024-03-17T13:32:48;2.35;;;1.45;;
44536;SDS011;30245;51.966;6.292;2024-03-17T13:35:20;1.60;;;1.13;;
44536;SDS011;30245;51.966;6.292;2024-03-17T13:37:48;2.10;;;1.20;;
44536;SDS011;30245;51.966;6.292;2024-03-17T13:40:15;2.83;;;0.88;;
44536;SDS011;30245;51.966;6.292;2024-03-17T13:42:47;4.78;;;0.90;;
44536;SDS011;30245;51.966;6.292;2024-03-17T13:45:16;5.57;;;0.90;;
44536;SDS011;30245;51.966;6.292;2024-03-17T13:47:47;5.03;;;1.50;;
44536;SDS011;30245;51.966;6.292;2024-03-17T13:50:22;1.95;;;0.93;;
44536;SDS011;30245;51.966;6.292;2024-03-17T13:52:49;2.22;;;1.08;;
44536;SDS011;30245;51.966;6.292;2024-03-17T13:57:43;2.97;;;1.50;;
44536;SDS011;30245;51.966;6.292;2024-03-17T14:00:10;4.75;;;1.65;;
44536;SDS011;30245;51.966;6.292;2024-03-17T14:02:40;2.13;;;1.05;;
44536;SDS011;30245;51.966;6.292;2024-03-17T14:05:07;3.40;;;1.50;;
44536;SDS011;30245;51.966;6.292;2024-03-17T14:07:36;3.72;;;1.27;;
44536;SDS011;30245;51.966;6.292;2024-03-17T14:10:02;4.07;;;1.55;;
44536;SDS011;30245;51.966;6.292;2024-03-17T14:12:28;4.22;;;1.08;;
44536;SDS011;30245;51.966;6.292;2024-03-17T14:14:53;2.53;;;1.25;;
44536;SDS011;30245;51.966;6.292;2024-03-17T14:17:19;1.55;;;0.73;;
44536;SDS011;30245;51.966;6.292;2024-03-17T14:19:44;2.60;;;0.90;;
44536;SDS011;30245;51.966;6.292;2024-03-17T14:22:10;2.55;;;1.67;;
44536;SDS011;30245;51.966;6.292;2024-03-17T14:24:35;2.60;;;1.08;;
44536;SDS011;30245;51.966;6.292;2024-03-17T14:27:02;1.90;;;0.95;;
44536;SDS011;30245;51.966;6.292;2024-03-17T14:29:27;1.70;;;0.82;;
44536;SDS011;30245;51.966;6.292;2024-03-17T14:31:53;1.15;;;0.70;;
44536;SDS011;30245;51.966;6.292;2024-03-17T14:34:18;2.15;;;0.73;;
44536;SDS011;30245;51.966;6.292;2024-03-17T14:36:44;2.65;;;0.93;;
44536;SDS011;30245;51.966;6.292;2024-03-17T14:39:09;1.52;;;0.65;;
44536;SDS011;30245;51.966;6.292;2024-03-17T14:41:35;1.95;;;1.00;;
44536;SDS011;30245;51.966;6.292;2024-03-17T14:44:01;1.70;;;0.95;;
44536;SDS011;30245;51.966;6.292;2024-03-17T14:46:29;1.13;;;0.95;;
44536;SDS011;30245;51.966;6.292;2024-03-17T14:48:54;2.10;;;1.20;;
44536;SDS011;30245;51.966;6.292;2024-03-17T14:51:20;3.00;;;0.98;;
44536;SDS011;30245;51.966;6.292;2024-03-17T14:53:48;2.63;;;1.10;;
44536;SDS011;30245;51.966;6.292;2024-03-17T14:56:16;3.25;;;1.13;;
44536;SDS011;30245;51.966;6.292;2024-03-17T14:58:45;2.90;;;1.00;;
44536;SDS011;30245;51.966;6.292;2024-03-17T15:03:39;3.03;;;0.70;;
44536;SDS011;30245;51.966;6.292;2024-03-17T15:06:14;2.47;;;0.70;;
44536;SDS011;30245;51.966;6.292;2024-03-17T15:11:09;1.15;;;0.60;;
44536;SDS011;30245;51.966;6.292;2024-03-17T15:13:35;1.83;;;0.88;;
44536;SDS011;30245;51.966;6.292;2024-03-17T15:16:02;2.88;;;0.98;;
44536;SDS011;30245;51.966;6.292;2024-03-17T15:18:33;4.25;;;1.50;;
44536;SDS011;30245;51.966;6.292;2024-03-17T15:21:02;3.95;;;1.40;;
44536;SDS011;30245;51.966;6.292;2024-03-17T15:23:30;3.30;;;0.82;;
44536;SDS011;30245;51.966;6.292;2024-03-17T15:26:02;3.10;;;0.90;;
44536;SDS011;30245;51.966;6.292;2024-03-17T15:28:35;3.90;;;1.10;;
44536;SDS011;30245;51.966;6.292;2024-03-17T15:31:05;1.35;;;1.00;;
44536;SDS011;30245;51.966;6.292;2024-03-17T15:33:31;2.08;;;1.42;;
44536;SDS011;30245;51.966;6.292;2024-03-17T15:36:00;1.38;;;0.50;;